Latest Weather Observations for Darwin Harbour

IDD60801

Issued at 3:21 am CST Friday 22 June 2018 (issued every 10 minutes, with the page automatically refreshed every 10 minutes)

About weather observations | Map of weather stations | Latest weather observations for NT | Other Formats
Station Details ID: 014072 Name: DARWIN NTC AWS Lat: -12.47 Lon: 130.85 Height: 0.0 m
Data from the previous 72 hours. | See also: Recent months for locations in Northern Territory
Date/Time
CST
Temp
°C
App
Temp
°C
Dew
Point
°C
Rel
Hum
%
Delta-T
°C
Wind Press
QNH
hPa
Press
MSL
hPa
Rain since
9am
mm
Dir  Spd
km/h
Gust
km/h
Spd
kts
Gust
kts
22/03:00am - - - - - ESE 19 22 10 12 1014.5 1014.4 -
22/02:30am - - - - - ESE 19 22 10 12 1014.6 1014.5 -
22/02:00am - - - - - ESE 17 22 9 12 1014.6 1014.5 -
22/01:30am - - - - - SE 13 17 7 9 1014.7 1014.7 -
22/01:00am - - - - - SE 15 20 8 11 1014.7 1014.7 -
22/12:30am - - - - - SE 13 20 7 11 1014.9 1014.9 -
22/12:00am - - - - - SE 13 19 7 10 1015.0 1015.0 -
 
Date/Time
CST
Temp
°C
App
Temp
°C
Dew
Point
°C
Rel
Hum
%
Delta-T
°C
Wind Press
QNH
hPa
Press
MSL
hPa
Rain since
9am
mm
Dir  Spd
km/h
Gust
km/h
Spd
kts
Gust
kts
21/11:30pm - - - - - SSW 9 11 5 6 1015.2 1015.2 -
21/11:00pm - - - - - SW 9 11 5 6 1015.4 1015.4 -
21/10:30pm - - - - - SW 9 13 5 7 1015.6 1015.6 -
21/10:00pm - - - - - WSW 7 9 4 5 1015.5 1015.5 -
21/09:30pm - - - - - WSW 9 13 5 7 1015.4 1015.4 -
21/09:00pm - - - - - WSW 11 15 6 8 1015.3 1015.3 -
21/08:30pm - - - - - WSW 11 15 6 8 1015.3 1015.3 -
21/08:00pm - - - - - W 7 11 4 6 1014.7 1014.7 -
21/07:30pm - - - - - WNW 4 7 2 4 1014.2 1014.1 -
21/07:00pm - - - - - NNE 9 15 5 8 1013.8 1013.7 -
21/06:30pm - - - - - N 13 19 7 10 1013.3 1013.2 -
21/06:00pm - - - - - N 15 22 8 12 1012.8 1012.7 -
21/05:30pm - - - - - NNW 9 17 5 9 1012.6 1012.5 -
21/05:00pm - - - - - NW 9 13 5 7 1012.4 1012.3 -
21/04:30pm - - - - - ENE 4 7 2 4 1012.2 1012.1 -
21/04:00pm - - - - - SE 7 9 4 5 1012.2 1012.1 -
21/03:30pm - - - - - SE 7 11 4 6 1012.2 1012.1 -
21/03:00pm - - - - - SE 11 15 6 8 1012.4 1012.3 -
21/02:30pm - - - - - ESE 15 19 8 10 1012.7 1012.6 -
21/02:00pm - - - - - E 17 22 9 12 1013.0 1012.9 -
21/01:30pm - - - - - SE 15 20 8 11 1013.4 1013.3 -
21/01:00pm - - - - - SE 17 20 9 11 1013.8 1013.7 -
21/12:30pm - - - - - ESE 17 24 9 13 1014.4 1014.3 -
21/12:00pm - - - - - ESE 19 28 10 15 1014.7 1014.7 -
21/11:30am - - - - - ESE 17 22 9 12 1015.2 1015.2 -
21/11:00am - - - - - ESE 15 20 8 11 1015.6 1015.6 -
21/10:30am - - - - - SE 17 20 9 11 1016.0 1016.0 -
21/10:00am - - - - - ESE 20 22 11 12 1016.2 1016.2 -
21/09:30am - - - - - ESE 19 22 10 12 1016.4 1016.4 -
21/09:00am - - - - - ESE 19 20 10 11 1016.2 1016.2 -
21/08:30am - - - - - ESE 19 20 10 11 1015.9 1015.9 -
21/08:00am - - - - - ESE 19 22 10 12 1015.6 1015.6 -
21/07:30am - - - - - SE 17 20 9 11 1015.1 1015.1 -
21/07:00am - - - - - ESE 19 24 10 13 1014.9 1014.9 -
21/06:30am - - - - - E 17 20 9 11 1014.5 1014.4 -
21/06:00am - - - - - E 13 17 7 9 1014.5 1014.4 -
21/05:30am - - - - - E 11 13 6 7 1014.4 1014.3 -
21/05:00am - - - - - ENE 13 20 7 11 1014.0 1013.9 -
21/04:30am - - - - - ESE 13 15 7 8 1013.9 1013.8 -
21/04:00am - - - - - ESE 15 17 8 9 1013.9 1013.8 -
21/03:30am - - - - - SE 15 17 8 9 1013.7 1013.6 -
21/03:00am - - - - - SE 7 11 4 6 1013.8 1013.7 -
21/02:30am - - - - - SSE 7 9 4 5 1014.1 1014.0 -
21/02:00am - - - - - SSW 7 9 4 5 1014.3 1014.2 -
21/01:30am - - - - - SSW 6 7 3 4 1014.5 1014.4 -
21/01:00am - - - - - S 6 7 3 4 1014.4 1014.3 -
21/12:30am - - - - - SW 9 11 5 6 1014.5 1014.4 -
21/12:00am - - - - - SW 6 9 3 5 1014.5 1014.4 -
 
Date/Time
CST
Temp
°C
App
Temp
°C
Dew
Point
°C
Rel
Hum
%
Delta-T
°C
Wind Press
QNH
hPa
Press
MSL
hPa
Rain since
9am
mm
Dir  Spd
km/h
Gust
km/h
Spd
kts
Gust
kts
20/11:30pm - - - - - WSW 6 7 3 4 1014.5 1014.4 -
20/11:00pm - - - - - WSW 6 7 3 4 1014.6 1014.5 -
20/10:30pm - - - - - WSW 7 9 4 5 1014.7 1014.7 -
20/10:00pm - - - - - SW 11 15 6 8 1014.5 1014.4 -
20/09:30pm - - - - - SW 13 15 7 8 1014.3 1014.2 -
20/09:00pm - - - - - SW 11 15 6 8 1014.1 1014.0 -
20/08:30pm - - - - - WSW 6 7 3 4 1013.8 1013.7 -
20/08:00pm - - - - - SW 4 6 2 3 1013.3 1013.2 -
20/07:30pm - - - - - NE 6 9 3 5 1012.9 1012.8 -
20/07:00pm - - - - - NNE 4 7 2 4 1012.8 1012.7 -
20/06:30pm - - - - - N 11 19 6 10 1012.6 1012.5 -
20/06:00pm - - - - - NNW 13 20 7 11 1012.2 1012.1 -
20/05:30pm - - - - - NNW 15 24 8 13 1012.0 1011.9 -
20/05:00pm - - - - - NNW 11 19 6 10 1011.9 1011.8 -
20/04:30pm - - - - - N 17 26 9 14 1011.8 1011.7 -
20/04:00pm - - - - - NNW 15 24 8 13 1011.9 1011.8 -
20/03:30pm - - - - - NNW 7 17 4 9 1012.2 1012.1 -
20/03:00pm - - - - - WSW 2 4 1 2 1012.3 1012.2 -
20/02:30pm - - - - - SW 6 7 3 4 1012.6 1012.5 -
20/02:00pm - - - - - SW 7 9 4 5 1013.0 1012.9 -
20/01:30pm - - - - - SSE 9 11 5 6 1013.5 1013.4 -
20/01:00pm - - - - - SSE 9 11 5 6 1013.9 1013.8 -
20/12:30pm - - - - - SE 9 13 5 7 1014.5 1014.4 -
20/12:00pm - - - - - SE 17 20 9 11 1014.9 1014.9 -
20/11:30am - - - - - ESE 22 26 12 14 1015.2 1015.2 -
20/11:00am - - - - - ESE 20 26 11 14 1015.4 1015.4 -
20/10:30am - - - - - SE 20 24 11 13 1015.6 1015.6 -
20/10:00am - - - - - SE 17 20 9 11 1015.9 1015.9 -
20/09:30am - - - - - ESE 20 24 11 13 1016.0 1016.0 -
20/09:00am - - - - - E 17 20 9 11 1016.0 1016.0 -
20/08:30am - - - - - SE 15 19 8 10 1015.7 1015.7 -
20/08:00am - - - - - ESE 15 20 8 11 1015.7 1015.7 -
20/07:30am - - - - - E 17 20 9 11 1015.2 1015.2 -
20/07:00am - - - - - E 17 24 9 13 1014.8 1014.8 -
20/06:30am - - - - - ESE 17 20 9 11 1014.6 1014.5 -
20/06:00am - - - - - ESE 19 22 10 12 1014.4 1014.3 -
20/05:30am - - - - - ESE 19 20 10 11 1014.6 1014.5 -
20/05:00am - - - - - ESE 19 24 10 13 1014.6 1014.5 -
20/04:30am - - - - - SE 19 24 10 13 1014.5 1014.4 -
20/04:00am - - - - - SE 17 20 9 11 1014.5 1014.4 -
20/03:30am - - - - - SE 11 15 6 8 1014.8 1014.8 -
20/03:00am - - - - - SE 9 13 5 7 1014.8 1014.8 -
20/02:30am - - - - - E 4 7 2 4 1015.0 1015.0 -
20/02:00am - - - - - ENE 2 6 1 3 1015.3 1015.3 -
20/01:30am - - - - - ENE 4 7 2 4 1015.6 1015.6 -
20/01:00am - - - - - ENE 6 11 3 6 1015.7 1015.7 -
20/12:30am - - - - - ESE 4 6 2 3 1015.7 1015.7 -
20/12:00am - - - - - SW 6 9 3 5 1015.7 1015.7 -
 
Date/Time
CST
Temp
°C
App
Temp
°C
Dew
Point
°C
Rel
Hum
%
Delta-T
°C
Wind Press
QNH
hPa
Press
MSL
hPa
Rain since
9am
mm
Dir  Spd
km/h
Gust
km/h
Spd
kts
Gust
kts
19/11:30pm - - - - - WSW 9 13 5 7 1015.5 1015.5 -
19/11:00pm - - - - - WSW 11 13 6 7 1015.6 1015.6 -
19/10:30pm - - - - - WSW 11 15 6 8 1015.8 1015.8 -
19/10:00pm - - - - - SW 15 19 8 10 1015.7 1015.7 -
19/09:30pm - - - - - SW 11 15 6 8 1015.6 1015.6 -
19/09:00pm - - - - - WNW 4 6 2 3 1015.1 1015.1 -
19/08:30pm - - - - - W 2 6 1 3 1014.7 1014.7 -
19/08:00pm - - - - - NW 4 9 2 5 1014.2 1014.1 -
19/07:30pm - - - - - NNE 11 17 6 9 1014.0 1013.9 -
19/07:00pm - - - - - NNE 13 20 7 11 1013.7 1013.6 -
19/06:30pm - - - - - NNE 13 22 7 12 1013.4 1013.3 -
19/06:00pm - - - - - N 15 20 8 11 1013.1 1013.0 -
19/05:30pm - - - - - N 13 20 7 11 1012.7 1012.6 -
19/05:00pm - - - - - NNW 13 20 7 11 1012.5 1012.4 -
19/04:30pm - - - - - NW 7 15 4 8 1012.4 1012.3 -
19/04:00pm - - - - - SE 2 4 1 2 1012.2 1012.1 -
19/03:30pm - - - - - SSW 2 6 1 3 1012.3 1012.2 -
19/03:00pm - - - - - SSW 7 9 4 5 1012.5 1012.4 -
19/02:30pm - - - - - SW 6 9 3 5 1012.9 1012.8 -
19/02:00pm - - - - - SW 6 7 3 4 1013.4 1013.3 -
19/01:30pm - - - - - E 11 13 6 7 1013.8 1013.7 -
19/01:00pm - - - - - SE 13 15 7 8 1014.1 1014.0 -
19/12:30pm - - - - - ESE 19 22 10 12 1014.6 1014.5 -
19/12:00pm - - - - - ESE 22 28 12 15 1015.1 1015.1 -
19/11:30am - - - - - E 26 30 14 16 1015.4 1015.4 -
19/11:00am - - - - - SE 22 26 12 14 1015.7 1015.7 -
19/10:30am - - - - - ESE 24 28 13 15 1016.0 1016.0 -
19/10:00am - - - - - SE 30 35 16 19 1016.2 1016.2 -
19/09:30am - - - - - SE 26 32 14 17 1016.4 1016.4 -
19/09:00am - - - - - ESE 20 28 11 15 1016.6 1016.6 -
19/08:30am - - - - - ESE 19 24 10 13 1016.5 1016.5 -
19/08:00am - - - - - SE 19 22 10 12 1016.3 1016.3 -
19/07:30am - - - - - ESE 17 22 9 12 1016.0 1016.0 -
19/07:00am - - - - - SE 19 24 10 13 1015.5 1015.5 -
19/06:30am - - - - - ESE 19 22 10 12 1015.1 1015.1 -
19/06:00am - - - - - SE 19 22 10 12 1014.8 1014.8 -
19/05:30am - - - - - ESE 19 24 10 13 1014.4 1014.3 -
19/05:00am - - - - - E 15 20 8 11 1014.2 1014.1 -
19/04:30am - - - - - ESE 15 17 8 9 1014.0 1013.9 -
19/04:00am - - - - - E 17 20 9 11 1014.0 1013.9 -
19/03:30am - - - - - ESE 17 22 9 12 1013.8 1013.7 -

Other Formats:

Comma delimited format used in spreadsheet applications
http://www.bom.gov.au/fwo/IDD60801/IDD60801.95122.axf

JavaScript Object Notation format (JSON) in row-major order
http://www.bom.gov.au/fwo/IDD60801/IDD60801.95122.json